createdAt,value
2023-02-02T00:04:49.483Z,4.28
2023-02-02T00:09:45.904Z,4.24
2023-02-02T00:14:42.662Z,4.30
2023-02-02T00:19:39.127Z,4.27
2023-02-02T00:24:35.505Z,4.31
2023-02-02T00:29:32.187Z,4.33
2023-02-02T00:34:28.606Z,4.38
2023-02-02T00:39:28.571Z,4.38
2023-02-02T00:44:43.267Z,4.39
2023-02-02T00:49:39.643Z,4.43
2023-02-02T00:54:36.142Z,4.45
2023-02-02T00:59:32.784Z,4.44
2023-02-02T01:04:29.158Z,4.41
2023-02-02T01:09:25.553Z,4.38
2023-02-02T01:14:22.079Z,4.34
2023-02-02T01:19:18.569Z,4.31
2023-02-02T01:24:14.955Z,4.30
2023-02-02T01:29:12.130Z,4.23
2023-02-02T01:34:08.986Z,4.14
2023-02-02T01:39:05.417Z,4.15
2023-02-02T01:44:06.979Z,4.15
2023-02-02T01:49:14.427Z,4.10
2023-02-02T01:54:18.717Z,3.99
2023-02-02T01:59:16.964Z,3.89
2023-02-02T02:04:14.160Z,3.90
2023-02-02T02:09:10.809Z,3.94
2023-02-02T02:14:29.027Z,4.01
2023-02-02T02:20:04.729Z,3.84
2023-02-02T02:26:00.974Z,3.85
2023-02-02T02:31:18.713Z,3.85
2023-02-02T02:36:26.599Z,3.75
2023-02-02T02:41:28.754Z,3.70
2023-02-02T02:46:26.798Z,3.69
2023-02-02T02:51:47.157Z,3.63
2023-02-02T02:57:05.518Z,3.73
2023-02-02T03:02:18.024Z,3.76
2023-02-02T03:07:23.763Z,3.85
2023-02-02T03:12:20.141Z,3.94
2023-02-02T03:17:16.553Z,4.03
2023-02-02T03:22:13.000Z,4.09
2023-02-02T03:27:09.562Z,4.09
2023-02-02T03:32:06.023Z,3.92
2023-02-02T03:37:02.479Z,3.97
2023-02-02T03:41:58.903Z,4.02
2023-02-02T03:46:55.451Z,3.98
2023-02-02T03:51:51.837Z,3.98
2023-02-02T03:56:48.269Z,3.96
2023-02-02T04:01:44.707Z,3.98
2023-02-02T04:06:41.161Z,3.89
2023-02-02T04:11:39.334Z,3.90
2023-02-02T04:16:37.673Z,3.88
2023-02-02T04:21:34.066Z,3.89
2023-02-02T04:26:30.638Z,3.90
2023-02-02T04:31:27.466Z,3.91
2023-02-02T04:36:24.045Z,3.88
2023-02-02T04:41:20.854Z,3.75
2023-02-02T04:46:17.336Z,3.70
2023-02-02T04:51:15.334Z,3.68
2023-02-02T04:56:16.931Z,3.68
2023-02-02T05:01:16.877Z,3.72
2023-02-02T05:06:15.862Z,3.73
2023-02-02T05:11:18.628Z,3.75
2023-02-02T05:16:15.306Z,3.82
2023-02-02T05:21:11.765Z,3.77
2023-02-02T05:26:15.176Z,3.66
2023-02-02T05:31:12.043Z,3.56
2023-02-02T05:36:08.525Z,3.54
2023-02-02T05:41:05.112Z,3.51
2023-02-02T05:46:01.767Z,3.52
2023-02-02T05:51:04.984Z,3.56
2023-02-02T05:56:01.470Z,3.64
2023-02-02T06:00:57.881Z,3.67
2023-02-02T06:05:54.330Z,3.70
2023-02-02T06:10:50.791Z,3.72
2023-02-02T06:15:47.278Z,3.76
2023-02-02T06:20:43.722Z,3.79
2023-02-02T06:25:40.161Z,3.79
2023-02-02T06:30:36.575Z,3.83
2023-02-02T06:35:33.512Z,3.86
2023-02-02T06:40:30.037Z,3.90
2023-02-02T06:45:27.692Z,3.91
2023-02-02T06:50:24.355Z,3.89
2023-02-02T06:55:20.780Z,3.90
2023-02-02T07:00:19.685Z,3.84
2023-02-02T07:05:22.128Z,3.76
2023-02-02T07:11:11.512Z,3.70
2023-02-02T07:15:38.037Z,3.74
2023-02-02T07:20:34.556Z,3.69
2023-02-02T07:25:31.051Z,3.66
2023-02-02T07:30:29.777Z,3.61
2023-02-02T07:35:26.706Z,3.51
2023-02-02T07:40:23.261Z,3.55
2023-02-02T07:45:26.877Z,3.58
2023-02-02T07:50:25.342Z,3.67
2023-02-02T07:55:21.993Z,3.70
2023-02-02T08:00:19.060Z,3.72
2023-02-02T08:05:15.578Z,3.65
2023-02-02T08:10:12.124Z,3.62
2023-02-02T08:15:09.129Z,3.62
2023-02-02T08:20:06.168Z,3.68
2023-02-02T08:25:02.621Z,3.65
2023-02-02T08:29:59.020Z,3.73
2023-02-02T08:34:55.469Z,3.81
2023-02-02T08:39:51.936Z,3.78
2023-02-02T08:46:01.941Z,3.85
2023-02-02T08:50:05.536Z,3.90
2023-02-02T08:55:02.008Z,3.98
2023-02-02T08:59:58.677Z,4.05
2023-02-02T09:04:55.071Z,4.13
2023-02-02T09:09:52.553Z,4.38
2023-02-02T09:14:49.207Z,4.52
2023-02-02T09:19:45.700Z,4.25
2023-02-02T09:24:42.105Z,4.24
2023-02-02T09:29:38.537Z,4.30
2023-02-02T09:34:35.025Z,4.39
2023-02-02T09:39:31.431Z,4.50
2023-02-02T09:44:33.489Z,4.63
2023-02-02T09:49:57.782Z,4.67
2023-02-02T09:55:06.531Z,4.95
2023-02-02T10:00:05.652Z,5.08
2023-02-02T10:05:11.571Z,5.16
2023-02-02T10:10:34.359Z,5.42
2023-02-02T10:15:42.073Z,5.64
2023-02-02T10:20:51.289Z,6.01
2023-02-02T10:26:16.646Z,6.48
2023-02-02T10:31:30.082Z,6.29
2023-02-02T10:36:40.432Z,6.60
2023-02-02T10:42:04.913Z,6.74
2023-02-02T10:47:04.488Z,6.42
2023-02-02T10:52:10.868Z,6.32
2023-02-02T10:57:11.744Z,6.21
2023-02-02T11:02:20.325Z,6.26
2023-02-02T11:07:20.571Z,6.23
2023-02-02T11:12:25.462Z,6.17
2023-02-02T11:17:24.813Z,6.36
2023-02-02T11:22:39.360Z,6.43
2023-02-02T11:27:41.151Z,6.32
2023-02-02T11:32:37.880Z,6.22
2023-02-02T11:37:36.623Z,6.15
2023-02-02T11:42:33.936Z,6.02
2023-02-02T11:47:33.113Z,6.47
2023-02-02T11:52:32.621Z,6.61
2023-02-02T11:57:30.479Z,6.66
2023-02-02T12:02:31.020Z,6.63
2023-02-02T12:07:33.275Z,6.80
2023-02-02T12:12:50.157Z,6.65
2023-02-02T12:17:51.311Z,6.65
2023-02-02T12:22:47.665Z,6.83
2023-02-02T12:27:57.549Z,7.48
2023-02-02T12:33:38.254Z,7.08
2023-02-02T12:38:57.699Z,6.98
2023-02-02T12:44:07.336Z,8.33
2023-02-02T12:49:28.245Z,8.23
2023-02-02T12:54:48.120Z,7.46
2023-02-02T13:00:03.171Z,6.89
2023-02-02T13:05:14.748Z,6.92
2023-02-02T13:10:33.915Z,7.03
2023-02-02T13:15:37.178Z,6.84
2023-02-02T13:21:16.723Z,7.24
2023-02-02T13:26:22.183Z,7.66
2023-02-02T13:31:36.892Z,7.44
2023-02-02T13:36:37.562Z,8.08
2023-02-02T13:41:33.957Z,8.14
2023-02-02T13:46:51.504Z,8.49
2023-02-02T13:52:32.889Z,8.55
2023-02-02T13:57:52.745Z,8.30
2023-02-02T14:02:56.150Z,8.75
2023-02-02T14:08:01.950Z,8.58
2023-02-02T14:13:32.540Z,8.94
2023-02-02T14:18:50.834Z,9.08
2023-02-02T14:23:54.367Z,8.64
2023-02-02T14:28:51.500Z,8.10
2023-02-02T14:33:48.610Z,7.43
2023-02-02T14:39:26.049Z,7.03
2023-02-02T14:44:22.650Z,7.05
2023-02-02T14:49:24.461Z,7.12
2023-02-02T14:54:28.872Z,7.13
2023-02-02T14:59:34.210Z,7.03
2023-02-02T15:04:30.805Z,6.75
2023-02-02T15:09:36.494Z,6.62
2023-02-02T15:14:35.508Z,6.46
2023-02-02T15:19:38.640Z,6.37
2023-02-02T15:24:36.226Z,6.35
2023-02-02T15:29:42.676Z,6.19
2023-02-02T15:34:43.920Z,6.05
2023-02-02T15:39:43.364Z,5.89
2023-02-02T15:44:39.843Z,5.80
2023-02-02T15:49:36.526Z,5.73
2023-02-02T15:54:37.942Z,5.60
2023-02-02T15:59:41.223Z,5.48
2023-02-02T16:04:40.471Z,5.49
2023-02-02T16:09:39.009Z,5.41
2023-02-02T16:14:39.621Z,5.38
2023-02-02T16:19:36.435Z,5.38
2023-02-02T16:24:46.761Z,5.32
2023-02-02T16:29:43.590Z,5.27
2023-02-02T16:34:40.325Z,5.22
2023-02-02T16:39:36.727Z,5.17
2023-02-02T16:44:46.055Z,5.14
2023-02-02T16:49:42.427Z,5.14
2023-02-02T16:54:43.714Z,5.02
2023-02-02T16:59:40.250Z,4.96
2023-02-02T17:04:36.700Z,4.91
2023-02-02T17:09:37.773Z,4.80
2023-02-02T17:14:36.874Z,4.73
2023-02-02T17:19:33.519Z,4.62
2023-02-02T17:24:29.906Z,4.54
2023-02-02T17:29:26.889Z,4.50
2023-02-02T17:34:23.812Z,4.49
2023-02-02T17:39:20.278Z,4.42
2023-02-02T17:44:16.722Z,4.43
2023-02-02T17:49:13.284Z,4.48
2023-02-02T17:54:14.513Z,4.50
2023-02-02T17:59:12.183Z,4.52
2023-02-02T18:04:12.912Z,4.58
2023-02-02T18:09:09.652Z,4.62
2023-02-02T18:14:06.088Z,4.62
2023-02-02T18:19:03.014Z,4.77
2023-02-02T18:23:59.590Z,4.86
2023-02-02T18:28:56.131Z,4.81
2023-02-02T18:33:53.706Z,4.80
2023-02-02T18:38:51.545Z,4.81
2023-02-02T18:43:48.538Z,4.95
2023-02-02T18:48:45.346Z,4.96
2023-02-02T18:53:49.191Z,5.02
2023-02-02T18:58:46.746Z,4.96
2023-02-02T19:03:48.267Z,5.03
2023-02-02T19:08:44.905Z,5.08
2023-02-02T19:13:41.500Z,4.99
2023-02-02T19:18:38.262Z,4.99
2023-02-02T19:23:37.426Z,5.00
2023-02-02T19:28:36.799Z,5.03
2023-02-02T19:33:41.770Z,5.05
2023-02-02T19:38:38.563Z,5.05
2023-02-02T19:43:36.514Z,5.00
2023-02-02T19:48:39.195Z,5.01
2023-02-02T19:53:38.613Z,5.05
2023-02-02T19:58:39.106Z,5.00
2023-02-02T20:03:43.360Z,5.01
2023-02-02T20:08:45.585Z,4.96
2023-02-02T20:13:48.740Z,4.80
2023-02-02T20:18:50.884Z,4.77
2023-02-02T20:23:47.795Z,4.65
2023-02-02T20:28:46.153Z,4.67
2023-02-02T20:33:46.686Z,4.63
2023-02-02T20:38:43.336Z,4.58
2023-02-02T20:43:39.777Z,4.51
2023-02-02T20:48:36.227Z,4.46
2023-02-02T20:53:32.763Z,4.37
2023-02-02T20:58:29.271Z,4.34
2023-02-02T21:03:25.808Z,4.34
2023-02-02T21:08:22.284Z,4.37
2023-02-02T21:13:18.723Z,4.27
2023-02-02T21:18:15.151Z,4.31
2023-02-02T21:23:11.578Z,4.25
2023-02-02T21:28:08.172Z,4.15
2023-02-02T21:33:06.783Z,4.08
2023-02-02T21:38:15.947Z,4.04
2023-02-02T21:43:18.614Z,3.96
2023-02-02T21:48:34.554Z,3.93
2023-02-02T21:53:33.794Z,3.95
2023-02-02T21:58:34.264Z,3.95
2023-02-02T22:03:38.221Z,3.98
2023-02-02T22:08:37.013Z,3.85
2023-02-02T22:13:35.396Z,3.85
2023-02-02T22:18:32.485Z,3.89
2023-02-02T22:23:28.941Z,3.84
2023-02-02T22:28:29.626Z,3.83
2023-02-02T22:33:26.615Z,3.83
2023-02-02T22:38:25.155Z,3.87
2023-02-02T22:43:21.990Z,3.82
2023-02-02T22:48:18.776Z,3.83
2023-02-02T22:53:15.470Z,3.93
2023-02-02T22:58:11.958Z,3.92
2023-02-02T23:03:08.436Z,3.84
2023-02-02T23:08:05.082Z,3.86
2023-02-02T23:13:03.477Z,3.83
2023-02-02T23:18:00.350Z,3.90
2023-02-02T23:22:56.775Z,3.85
2023-02-02T23:27:53.238Z,3.94
2023-02-02T23:32:50.061Z,3.93
2023-02-02T23:37:46.449Z,3.94
2023-02-02T23:42:42.982Z,4.04
2023-02-02T23:47:39.442Z,4.11
2023-02-02T23:52:36.874Z,4.13
2023-02-02T23:57:33.786Z,4.27
